Time;durP1;ratioP1;P1;durP2;ratioP2;P2;SDS_P1;SDS_P2;PMS_P1;PMS_P2;Temp;Humidity;BMP_temperature;BMP_pressure;BME280_temperature;BME280_humidity;BME280_pressure;Samples;Min_cycle;Max_cycle;Signal;HPM_P1;HPM_P2
2021/11/15 00:01:15;;;;;;;58.20;34.77;;;;;;;0.77;100.00;101201.02;1816129;78;21073;-70
2021/11/15 00:03:43;;;;;;;58.70;35.13;;;;;;;0.72;100.00;101205.23;1829231;78;21001;-69
2021/11/15 00:06:10;;;;;;;64.57;37.07;;;;;;;0.68;100.00;101193.52;1707134;84;21005;-69
2021/11/15 00:08:41;;;;;;;58.73;34.73;;;;;;;0.62;100.00;101202.68;1706473;84;21077;-70
2021/11/15 00:11:08;;;;;;;54.77;32.90;;;;;;;0.58;100.00;101198.43;1730848;83;21064;-69
2021/11/15 00:13:36;;;;;;;55.07;32.60;;;;;;;0.53;100.00;101205.34;1699702;84;21586;-70
2021/11/15 00:16:06;;;;;;;50.20;29.77;;;;;;;0.48;100.00;101210.03;1730510;83;21563;-70
2021/11/15 00:18:35;;;;;;;47.23;27.77;;;;;;;0.44;100.00;101211.10;1701556;84;21015;-70
2021/11/15 00:21:02;;;;;;;40.67;24.93;;;;;;;0.38;100.00;101214.09;1730477;83;21017;-70
2021/11/15 00:23:31;;;;;;;41.17;26.17;;;;;;;0.33;100.00;101202.81;1700172;84;21074;-69
2021/11/15 00:26:02;;;;;;;42.77;27.33;;;;;;;0.30;100.00;101200.30;1730767;83;21125;-69
2021/11/15 00:28:32;;;;;;;41.67;24.63;;;;;;;0.27;100.00;101200.47;1695546;85;21070;-70
2021/11/15 00:31:00;;;;;;;40.73;25.73;;;;;;;0.26;100.00;101201.39;1676288;86;21026;-69
2021/11/15 00:33:29;;;;;;;42.83;25.07;;;;;;;0.23;100.00;101198.44;1684186;84;21108;-70
2021/11/15 00:35:57;;;;;;;46.80;26.20;;;;;;;0.22;100.00;101198.03;1707909;84;21058;-70
2021/11/15 00:38:25;;;;;;;45.67;25.10;;;;;;;0.23;100.00;101194.89;1684419;84;21609;-70
2021/11/15 00:40:54;;;;;;;42.83;25.37;;;;;;;0.23;100.00;101193.11;1684461;84;21057;-71
2021/11/15 00:43:21;;;;;;;42.23;25.50;;;;;;;0.23;100.00;101190.90;1684303;84;21069;-70
2021/11/15 00:45:51;;;;;;;40.00;25.40;;;;;;;0.22;100.00;101186.53;1706853;84;21542;-69
2021/11/15 00:48:22;;;;;;;43.50;25.87;;;;;;;0.20;100.00;101181.77;1678838;85;21021;-69
2021/11/15 00:50:50;;;;;;;44.10;25.80;;;;;;;0.18;100.00;101177.37;1678867;85;21053;-69
2021/11/15 00:53:20;;;;;;;38.03;23.53;;;;;;;0.17;100.00;101182.76;1678248;85;21046;-70
2021/11/15 00:55:47;;;;;;;37.73;22.23;;;;;;;0.14;100.00;101186.45;1679259;85;21034;-70
2021/11/15 00:58:14;;;;;;;37.30;21.97;;;;;;;0.12;100.00;101196.75;1679004;84;21617;-71
2021/11/15 01:00:41;;;;;;;36.80;21.83;;;;;;;0.09;100.00;101187.14;1693752;83;21546;-70
2021/11/15 01:03:11;;;;;;;36.37;21.90;;;;;;;0.05;100.00;101177.57;1731555;81;21542;-70
2021/11/15 01:05:39;;;;;;;35.00;20.17;;;;;;;0.02;100.00;101172.42;1755423;81;21014;-69
2021/11/15 01:08:06;;;;;;;38.57;21.90;;;;;;;-0.03;100.00;101175.30;1775480;80;21049;-68
2021/11/15 01:10:34;;;;;;;38.45;21.20;;;;;;;-0.05;100.00;101173.66;1792449;80;21510;-70
2021/11/15 01:13:01;;;;;;;42.37;21.73;;;;;;;-0.06;100.00;101179.91;1792205;80;20991;-69
2021/11/15 01:15:30;;;;;;;46.00;23.87;;;;;;;-0.07;100.00;101170.19;1792198;80;21030;-70
2021/11/15 01:17:59;;;;;;;56.03;25.77;;;;;;;-0.07;100.00;101167.53;1791932;80;21124;-70
2021/11/15 01:20:30;;;;;;;58.67;25.17;;;;;;;-0.08;100.00;101160.52;1768272;80;21558;-70
2021/11/15 01:22:57;;;;;;;55.57;26.03;;;;;;;-0.09;100.00;101157.45;1768149;80;21017;-71
2021/11/15 01:25:29;;;;;;;57.67;27.57;;;;;;;-0.08;100.00;101157.38;1768179;80;21017;-69
2021/11/15 01:27:56;;;;;;;86.30;36.03;;;;;;;-0.06;100.00;101152.84;1768008;80;21092;-68
2021/11/15 01:30:23;;;;;;;110.17;45.57;;;;;;;-0.06;100.00;101148.84;1767607;80;21084;-71
2021/11/15 01:32:53;;;;;;;128.87;52.63;;;;;;;-0.07;100.00;101139.61;1767879;80;21022;-69
2021/11/15 01:35:24;;;;;;;112.57;50.47;;;;;;;-0.07;100.00;101144.48;1768180;80;21049;-70
2021/11/15 01:37:53;;;;;;;73.83;33.18;;;;;;;-0.05;100.00;101145.75;1743583;80;21033;-70
2021/11/15 01:40:25;;;;;;;82.27;37.93;;;;;;;-0.06;100.00;101147.52;1792365;80;21021;-69
2021/11/15 01:42:52;;;;;;;81.33;37.73;;;;;;;-0.06;100.00;101154.65;1792725;80;21033;-70
2021/11/15 01:45:23;;;;;;;72.20;35.37;;;;;;;-0.07;100.00;101156.45;1767826;80;21010;-69
2021/11/15 01:47:49;;;;;;;67.63;30.83;;;;;;;-0.10;100.00;101157.92;1802700;79;21002;-70
2021/11/15 01:50:17;;;;;;;65.63;32.83;;;;;;;-0.10;100.00;101159.73;1826663;78;21032;-70
2021/11/15 01:52:44;;;;;;;60.20;31.60;;;;;;;-0.11;100.00;101161.98;1765898;80;21069;-69
2021/11/15 01:55:12;;;;;;;61.27;32.00;;;;;;;-0.14;100.00;101164.34;1826990;78;21033;-71
2021/11/15 01:57:41;;;;;;;54.70;29.47;;;;;;;-0.15;100.00;101173.23;1765997;80;21065;-70
2021/11/15 02:00:13;;;;;;;52.43;29.30;;;;;;;-0.16;100.00;101176.84;1800944;78;21078;-69
2021/11/15 02:02:41;;;;;;;47.48;27.27;;;;;;;-0.17;100.00;101168.95;1772484;81;21045;-70
2021/11/15 02:05:09;;;;;;;57.63;32.33;;;;;;;-0.20;100.00;101165.95;1793631;80;21016;-70
2021/11/15 02:07:36;;;;;;;58.87;33.57;;;;;;;-0.23;100.00;101161.66;1735664;81;21042;-70
2021/11/15 02:10:05;;;;;;;59.17;34.30;;;;;;;-0.22;100.00;101158.05;1808724;78;21044;-70
2021/11/15 02:12:33;;;;;;;55.83;33.27;;;;;;;-0.22;100.00;101170.01;1788347;79;21012;-71
2021/11/15 02:15:00;;;;;;;68.37;38.70;;;;;;;-0.21;100.00;101177.06;1788208;79;21552;-70
2021/11/15 02:17:28;;;;;;;89.90;49.80;;;;;;;-0.19;100.00;101179.65;1814870;78;21035;-69
2021/11/15 02:19:55;;;;;;;115.87;60.43;;;;;;;-0.15;100.00;101187.01;1788145;79;21536;-69
2021/11/15 02:22:24;;;;;;;123.07;64.87;;;;;;;-0.12;100.00;101190.38;1815017;79;21063;-68
2021/11/15 02:24:51;;;;;;;126.17;66.67;;;;;;;-0.06;100.00;101191.39;1788469;79;21512;-69
2021/11/15 02:27:18;;;;;;;113.30;59.50;;;;;;;0.02;100.00;101193.70;1815192;79;21077;-70
2021/11/15 02:29:47;;;;;;;105.63;55.97;;;;;;;0.07;100.00;101182.81;1788676;79;21024;-70
2021/11/15 02:32:14;;;;;;;92.50;49.17;;;;;;;0.13;100.00;101190.03;1788391;79;21024;-69
2021/11/15 02:34:41;;;;;;;79.17;42.97;;;;;;;0.17;100.00;101195.58;1815061;79;21078;-70
2021/11/15 02:37:08;;;;;;;70.97;40.13;;;;;;;0.21;100.00;101194.11;1788603;79;21520;-69
2021/11/15 02:39:35;;;;;;;76.33;42.33;;;;;;;0.25;100.00;101191.67;1814917;79;21055;-69
2021/11/15 02:42:03;;;;;;;79.90;43.37;;;;;;;0.26;100.00;101180.97;1815121;79;21492;-69
2021/11/15 02:44:30;;;;;;;100.70;55.67;;;;;;;0.27;100.00;101183.18;1788565;79;21020;-69
2021/11/15 02:46:57;;;;;;;112.87;64.93;;;;;;;0.29;100.00;101182.63;1803195;79;21030;-70
2021/11/15 02:49:29;;;;;;;129.93;71.83;;;;;;;0.31;100.00;101176.75;1740973;80;21006;-69
2021/11/15 02:51:57;;;;;;;125.83;67.53;;;;;;;0.34;100.00;101180.13;1762439;80;21022;-69
2021/11/15 02:54:24;;;;;;;106.60;59.60;;;;;;;0.37;100.00;101177.76;1792120;80;21014;-70
2021/11/15 02:56:53;;;;;;;97.53;52.07;;;;;;;0.37;100.00;101171.11;1766071;80;20983;-70
2021/11/15 02:59:20;;;;;;;87.97;47.90;;;;;;;0.38;100.00;101179.49;1735540;81;20962;-70
2021/11/15 03:01:47;;;;;;;152.87;82.63;;;;;;;0.35;100.00;101165.01;1781538;80;21524;-70
2021/11/15 03:04:14;;;;;;;178.60;94.00;;;;;;;0.34;100.00;101177.46;1749534;81;20993;-69
2021/11/15 03:06:42;;;;;;;203.93;102.47;;;;;;;0.33;100.00;101174.88;1749419;81;21024;-70
2021/11/15 03:09:09;;;;;;;208.70;110.13;;;;;;;0.32;100.00;101182.00;1749427;81;21030;-68
2021/11/15 03:11:36;;;;;;;371.67;166.97;;;;;;;0.30;100.00;101183.88;1749659;81;21545;-70
2021/11/15 03:14:02;;;;;;;420.73;194.07;;;;;;;0.28;100.00;101183.55;1777815;80;20984;-69
2021/11/15 03:16:30;;;;;;;360.23;166.47;;;;;;;0.23;100.00;101179.81;1777627;81;21068;-69
2021/11/15 03:18:57;;;;;;;288.73;138.07;;;;;;;0.22;100.00;101185.20;1777948;81;20980;-69
2021/11/15 03:21:24;;;;;;;260.30;126.13;;;;;;;0.21;100.00;101182.98;1749514;81;21079;-71
2021/11/15 03:23:54;;;;;;;220.50;111.37;;;;;;;0.17;100.00;101184.94;1749970;81;21477;-69
2021/11/15 03:26:22;;;;;;;213.90;112.37;;;;;;;0.14;100.00;101185.56;1749433;81;21576;-70
2021/11/15 03:28:51;;;;;;;187.53;97.80;;;;;;;0.11;100.00;101187.06;1749556;81;21012;-70
2021/11/15 03:31:28;;;;;;;151.50;84.20;;;;;;;0.06;100.00;101192.60;1725461;81;21013;-71
2021/11/15 03:34:02;;;;;;;170.33;87.73;;;;;;;0.03;100.00;101191.41;1778102;81;21525;-70
2021/11/15 03:36:30;;;;;;;159.50;82.60;;;;;;;0.01;100.00;101191.11;1733880;81;21554;-69
2021/11/15 03:38:57;;;;;;;163.13;85.13;;;;;;;-0.03;100.00;101190.41;1709917;81;21089;-71
2021/11/15 03:41:26;;;;;;;165.00;84.03;;;;;;;-0.04;100.00;101195.31;1759163;81;21522;-70
2021/11/15 03:43:53;;;;;;;158.00;80.43;;;;;;;-0.04;100.00;101195.31;1759221;81;21032;-72
2021/11/15 03:46:20;;;;;;;150.90;77.37;;;;;;;-0.03;100.00;101201.89;1728402;83;21079;-70
2021/11/15 03:48:51;;;;;;;146.60;75.53;;;;;;;-0.03;100.00;101202.37;1740182;81;21050;-70
2021/11/15 03:51:19;;;;;;;122.80;67.03;;;;;;;-0.06;100.00;101196.71;1739863;81;21029;-70
2021/11/15 03:53:46;;;;;;;117.67;61.13;;;;;;;-0.08;100.00;101194.59;1765419;81;21514;-70
2021/11/15 03:56:16;;;;;;;94.10;51.67;;;;;;;-0.11;100.00;101197.88;1739735;81;21065;-70
2021/11/15 03:58:44;;;;;;;94.03;52.80;;;;;;;-0.16;100.00;101196.79;1765256;81;21033;-70
2021/11/15 04:01:11;;;;;;;98.57;51.80;;;;;;;-0.20;100.00;101189.87;1738347;81;21033;-70
2021/11/15 04:03:39;;;;;;;90.37;48.93;;;;;;;-0.24;100.00;101197.14;1766926;81;21073;-70
2021/11/15 04:06:21;;;;;;;81.37;47.40;;;;;;;-0.28;100.00;101199.56;1741437;81;21036;-70
2021/11/15 04:08:43;;;;;;;81.47;47.90;;;;;;;-0.32;100.00;101202.42;1684931;84;21102;-70
2021/11/15 04:11:11;;;;;;;90.87;51.47;;;;;;;-0.35;100.00;101205.22;1667756;85;21156;-70
2021/11/15 04:13:42;;;;;;;124.40;60.50;;;;;;;-0.39;100.00;101210.70;1675435;86;21093;-69
2021/11/15 04:16:11;;;;;;;140.87;64.03;;;;;;;-0.44;100.00;101206.06;1675192;86;21089;-71
2021/11/15 04:18:46;;;;;;;134.00;58.40;;;;;;;-0.47;100.00;101207.53;1675233;86;21069;-70
2021/11/15 04:21:13;;;;;;;126.80;57.60;;;;;;;-0.49;100.00;101208.08;1635569;86;21225;-69
2021/11/15 04:23:40;;;;;;;124.17;57.00;;;;;;;-0.51;100.00;101220.57;1652800;86;21619;-70
2021/11/15 04:26:07;;;;;;;118.33;57.23;;;;;;;-0.51;100.00;101225.88;1657558;86;21065;-70
2021/11/15 04:28:34;;;;;;;137.83;65.20;;;;;;;-0.52;100.00;101225.95;1675341;86;21001;-70
2021/11/15 04:31:01;;;;;;;169.87;78.50;;;;;;;-0.54;100.00;101233.99;1657676;86;21053;-70
2021/11/15 04:33:29;;;;;;;163.33;76.60;;;;;;;-0.56;100.00;101234.53;1683354;84;21614;-70
2021/11/15 04:35:56;;;;;;;143.73;67.50;;;;;;;-0.54;100.00;101237.13;1685516;84;21110;-70
2021/11/15 04:38:23;;;;;;;109.17;56.83;;;;;;;-0.54;100.00;101235.80;1709360;82;21629;-70
2021/11/15 04:40:50;;;;;;;111.50;56.80;;;;;;;-0.56;100.00;101238.52;1685298;84;21032;-70
2021/11/15 04:43:17;;;;;;;103.67;55.43;;;;;;;-0.56;100.00;101238.99;1709168;84;21037;-71
2021/11/15 04:45:44;;;;;;;107.10;59.47;;;;;;;-0.58;100.00;101242.56;1708999;84;21593;-69
2021/11/15 04:48:11;;;;;;;89.87;51.07;;;;;;;-0.58;100.00;101245.70;1683190;84;20987;-70
2021/11/15 04:50:40;;;;;;;89.00;49.37;;;;;;;-0.60;100.00;101241.78;1706586;84;21555;-69
2021/11/15 04:53:07;;;;;;;75.03;42.87;;;;;;;-0.61;100.00;101245.36;1706976;84;21543;-69
2021/11/15 04:55:37;;;;;;;68.97;41.23;;;;;;;-0.62;100.00;101254.28;1706526;84;21117;-69
2021/11/15 04:58:06;;;;;;;68.00;39.93;;;;;;;-0.64;100.00;101244.19;1683506;84;21055;-70
2021/11/15 05:00:34;;;;;;;64.50;38.83;;;;;;;-0.64;100.00;101249.95;1707510;84;21017;-71
2021/11/15 05:03:01;;;;;;;71.27;40.57;;;;;;;-0.65;100.00;101246.44;1709114;83;21045;-71
2021/11/15 05:05:29;;;;;;;73.47;40.83;;;;;;;-0.66;100.00;101249.16;1729193;82;21460;-69
2021/11/15 05:07:57;;;;;;;70.93;39.63;;;;;;;-0.67;100.00;101247.45;1777865;81;21020;-70
2021/11/15 05:10:26;;;;;;;73.27;41.50;;;;;;;-0.69;100.00;101254.16;1778722;78;22222;-69
2021/11/15 05:12:54;;;;;;;67.60;38.73;;;;;;;-0.70;100.00;101254.23;1785152;80;20982;-71
2021/11/15 05:15:21;;;;;;;64.47;36.80;;;;;;;-0.71;100.00;101257.33;1785024;80;21061;-70
2021/11/15 05:17:49;;;;;;;61.40;35.33;;;;;;;-0.71;100.00;101259.98;1760747;80;21104;-72
2021/11/15 05:20:16;;;;;;;61.47;35.17;;;;;;;-0.71;100.00;101256.47;1784913;80;21062;-68
2021/11/15 05:22:44;;;;;;;58.33;33.57;;;;;;;-0.70;100.00;101266.18;1785035;80;21021;-69
2021/11/15 05:25:13;;;;;;;60.83;34.43;;;;;;;-0.69;100.00;101266.55;1760825;80;21065;-69
2021/11/15 05:27:40;;;;;;;73.43;41.00;;;;;;;-0.68;100.00;101261.18;1785140;80;21041;-68
2021/11/15 05:30:09;;;;;;;211.27;78.50;;;;;;;-0.58;100.00;101273.59;1760813;80;20971;-70
2021/11/15 05:32:38;;;;;;;125.03;56.03;;;;;;;-0.49;100.00;101273.17;1785110;80;20998;-71
2021/11/15 05:35:07;;;;;;;126.23;55.90;;;;;;;-0.37;100.00;101281.06;1761026;80;21006;-72
2021/11/15 05:37:34;;;;;;;75.33;39.83;;;;;;;-0.26;100.00;101287.20;1760949;80;20993;-73
2021/11/15 05:40:01;;;;;;;62.87;34.27;;;;;;;-0.23;100.00;101279.06;1736054;80;21009;-72
2021/11/15 05:42:28;;;;;;;64.67;35.30;;;;;;;-0.19;100.00;101287.31;1785192;80;21034;-73
2021/11/15 05:44:55;;;;;;;104.37;59.10;;;;;;;-0.15;100.00;101285.38;1736447;80;21006;-70
2021/11/15 05:47:22;;;;;;;84.97;48.17;;;;;;;-0.09;100.00;101287.29;1740674;82;21518;-72
2021/11/15 05:49:49;;;;;;;67.50;42.00;;;;;;;-0.02;100.00;101288.72;1754371;81;21077;-70
2021/11/15 05:52:18;;;;;;;65.70;38.43;;;;;;;0.06;100.00;101286.16;1729615;82;21013;-71
2021/11/15 05:54:47;;;;;;;95.97;62.83;;;;;;;0.11;100.00;101290.80;1754061;81;21037;-71
2021/11/15 05:57:15;;;;;;;61.80;34.43;;;;;;;0.15;100.00;101295.88;1754421;81;21029;-73
2021/11/15 05:59:43;;;;;;;63.33;34.37;;;;;;;0.17;100.00;101309.11;1731026;82;21041;-72
2021/11/15 06:02:10;;;;;;;65.03;35.83;;;;;;;0.15;100.00;101299.02;1770565;80;21017;-72
2021/11/15 06:04:38;;;;;;;50.70;29.33;;;;;;;0.14;100.00;101315.45;1728489;82;21046;-72
2021/11/15 06:07:05;;;;;;;46.27;27.40;;;;;;;0.16;100.00;101302.05;1728603;82;21057;-72
2021/11/15 06:09:32;;;;;;;48.43;29.10;;;;;;;0.18;100.00;101307.71;1751718;81;21057;-73
2021/11/15 06:12:03;;;;;;;49.97;29.40;;;;;;;0.24;100.00;101299.05;1783285;79;21511;-71
2021/11/15 06:14:30;;;;;;;50.93;29.90;;;;;;;0.33;100.00;101308.76;1782831;80;21022;-73
2021/11/15 06:16:57;;;;;;;50.80;32.10;;;;;;;0.43;100.00;101314.52;1782983;80;21436;-73
2021/11/15 06:19:25;;;;;;;54.43;32.47;;;;;;;0.54;100.00;101315.31;1780994;80;21512;-72
2021/11/15 06:21:53;;;;;;;50.03;28.13;;;;;;;0.67;100.00;101316.41;1774323;81;21057;-72
2021/11/15 06:24:20;;;;;;;47.93;28.33;;;;;;;0.79;100.00;101314.95;1750269;81;21539;-72
2021/11/15 06:26:48;;;;;;;92.03;56.63;;;;;;;0.91;100.00;101313.48;1774146;81;21023;-74
2021/11/15 06:29:15;;;;;;;83.40;60.53;;;;;;;1.04;100.00;101315.89;1774292;81;21098;-72
2021/11/15 06:31:42;;;;;;;66.87;46.57;;;;;;;1.16;100.00;101323.73;1774272;81;21015;-72
2021/11/15 06:34:10;;;;;;;52.97;34.20;;;;;;;1.28;100.00;101322.25;1774153;81;21016;-72
2021/11/15 06:36:37;;;;;;;70.83;41.63;;;;;;;1.42;100.00;101323.72;1773628;81;21589;-72
2021/11/15 06:39:04;;;;;;;47.90;28.13;;;;;;;1.56;100.00;101322.11;1774265;81;21027;-71
2021/11/15 06:41:31;;;;;;;50.13;28.63;;;;;;;1.70;100.00;101329.78;1774110;81;21008;-73
2021/11/15 06:43:58;;;;;;;65.30;37.13;;;;;;;1.83;100.00;101329.12;1774117;81;21077;-71
2021/11/15 06:46:27;;;;;;;63.90;36.47;;;;;;;1.94;100.00;101338.72;1776534;80;21074;-73
2021/11/15 06:48:54;;;;;;;72.50;43.93;;;;;;;2.04;100.00;101331.09;1783041;80;21062;-72
2021/11/15 06:51:21;;;;;;;56.93;35.30;;;;;;;2.16;100.00;101335.75;1782530;80;20994;-72
2021/11/15 06:53:49;;;;;;;68.50;41.33;;;;;;;2.28;100.00;101331.52;1807845;79;21042;-73
2021/11/15 06:56:16;;;;;;;51.87;33.20;;;;;;;2.43;100.00;101331.14;1782785;80;21082;-73
2021/11/15 06:58:43;;;;;;;55.57;33.03;;;;;;;2.55;100.00;101338.45;1781126;80;21129;-75
2021/11/15 07:01:10;;;;;;;55.13;32.23;;;;;;;2.69;100.00;101331.44;1790361;79;21516;-74
2021/11/15 07:03:37;;;;;;;60.27;29.70;;;;;;;2.81;100.00;101328.06;1750618;82;21082;-73
2021/11/15 07:06:04;;;;;;;60.30;33.87;;;;;;;2.98;100.00;101327.94;1751636;82;21040;-73
2021/11/15 07:08:33;;;;;;;66.20;40.40;;;;;;;3.14;100.00;101333.23;1751075;82;21094;-73
2021/11/15 07:11:01;;;;;;;79.97;48.73;;;;;;;3.18;100.00;101332.57;1741887;81;21072;-74
2021/11/15 07:13:28;;;;;;;148.70;69.77;;;;;;;3.23;100.00;101333.16;1736304;83;21037;-73
2021/11/15 07:15:55;;;;;;;68.67;38.03;;;;;;;3.27;100.00;101335.17;1730019;81;21049;-71
2021/11/15 07:18:23;;;;;;;90.67;50.93;;;;;;;3.29;100.00;101332.77;1760228;81;21074;-73
2021/11/15 07:20:50;;;;;;;56.77;32.50;;;;;;;3.35;100.00;101332.42;1756081;81;21057;-70
2021/11/15 07:23:17;;;;;;;44.30;26.70;;;;;;;3.42;100.00;101328.42;1770550;80;21494;-74
2021/11/15 07:25:44;;;;;;;47.40;27.93;;;;;;;3.45;100.00;101331.37;1754306;80;21044;-74
2021/11/15 07:28:11;;;;;;;56.97;33.90;;;;;;;3.53;100.00;101326.42;1767060;81;20989;-74
2021/11/15 07:30:38;;;;;;;49.83;29.20;;;;;;;3.67;100.00;101324.73;1784865;79;21551;-74
2021/11/15 07:33:05;;;;;;;48.30;29.23;;;;;;;3.74;100.00;101323.39;1768197;81;21018;-76
2021/11/15 07:35:33;;;;;;;58.43;37.03;;;;;;;3.82;100.00;101326.91;1773451;81;20977;-74
2021/11/15 07:38:00;;;;;;;51.57;32.03;;;;;;;3.90;100.00;101326.81;1774262;81;21092;-74
2021/11/15 07:40:28;;;;;;;63.57;39.63;;;;;;;4.08;100.00;101329.29;1776705;80;21071;-73
2021/11/15 07:42:55;;;;;;;68.63;40.77;;;;;;;4.27;100.00;101330.32;1768434;81;21049;-72
2021/11/15 07:45:23;;;;;;;65.53;39.20;;;;;;;4.45;100.00;101328.27;1757816;81;21050;-73
2021/11/15 07:47:50;;;;;;;90.57;55.00;;;;;;;4.55;100.00;101324.00;1768964;80;21048;-73
2021/11/15 07:50:17;;;;;;;71.87;44.17;;;;;;;4.59;100.00;101329.55;1781894;80;20961;-74
2021/11/15 07:52:44;;;;;;;80.60;45.57;;;;;;;4.52;100.00;101328.23;1766731;80;21049;-75
2021/11/15 07:55:13;;;;;;;51.50;29.03;;;;;;;4.40;100.00;101322.34;1781801;80;21036;-78
2021/11/15 07:57:43;;;;;;;84.97;48.07;;;;;;;4.31;100.00;101323.80;1764777;81;21041;-75
2021/11/15 08:00:14;;;;;;;88.17;51.67;;;;;;;4.22;100.00;101328.41;1742683;81;20998;-74
2021/11/15 08:02:41;;;;;;;105.20;56.80;;;;;;;4.23;100.00;101335.47;1777134;81;21066;-72
2021/11/15 08:05:10;;;;;;;121.57;70.40;;;;;;;4.27;100.00;101337.02;1725689;81;21027;-75
2021/11/15 08:07:37;;;;;;;116.30;62.87;;;;;;;4.29;100.00;101345.31;1767049;81;21033;-75
2021/11/15 08:10:05;;;;;;;90.70;51.83;;;;;;;4.35;100.00;101341.38;1752358;80;21161;-71
2021/11/15 08:12:37;;;;;;;47.53;28.10;;;;;;;4.40;100.00;101341.09;1797367;79;21541;-73
2021/11/15 08:15:07;;;;;;;88.07;49.93;;;;;;;4.45;100.00;101348.35;1687389;84;21079;-74
2021/11/15 08:17:37;;;;;;;108.83;55.83;;;;;;;4.49;100.00;101344.02;1662195;85;21063;-76
2021/11/15 08:20:06;;;;;;;59.53;33.67;;;;;;;4.45;100.00;101345.67;1685815;84;21043;-75
2021/11/15 08:22:36;;;;;;;60.80;35.50;;;;;;;4.38;100.00;101350.56;1689832;84;21107;-76
2021/11/15 08:25:37;;;;;;;94.77;48.50;;;;;;;4.38;100.00;101341.19;1686404;84;21535;-73
2021/11/15 08:28:04;;;;;;;43.83;25.13;;;;;;;4.37;100.00;101348.83;1630476;87;21072;-73
2021/11/15 08:30:32;;;;;;;41.23;22.93;;;;;;;4.32;100.00;101350.48;1634208;88;21060;-73
2021/11/15 08:33:00;;;;;;;200.73;82.87;;;;;;;4.32;100.00;101346.47;1633789;88;21130;-73
2021/11/15 08:35:27;;;;;;;150.57;71.23;;;;;;;4.34;100.00;101345.88;1634146;88;21104;-74
2021/11/15 08:38:25;;;;;;;46.10;25.93;;;;;;;4.34;100.00;101344.55;1606092;88;21028;-73
2021/11/15 08:40:52;;;;;;;114.57;56.77;;;;;;;4.43;100.00;101348.94;1612489;88;21075;-72
2021/11/15 08:43:21;;;;;;;167.40;82.10;;;;;;;4.67;100.00;101343.28;1633800;88;21127;-72
2021/11/15 08:45:49;;;;;;;152.40;75.17;;;;;;;4.92;100.00;101340.31;1627987;87;21648;-73
2021/11/15 08:48:16;;;;;;;100.87;49.33;;;;;;;5.10;100.00;101331.05;1702880;84;21559;-73
2021/11/15 08:50:43;;;;;;;191.47;92.67;;;;;;;5.24;100.00;101327.44;1702552;84;21042;-72
2021/11/15 08:53:10;;;;;;;112.37;58.20;;;;;;;5.25;100.00;101329.13;1702650;84;21043;-74
2021/11/15 08:55:38;;;;;;;54.40;29.50;;;;;;;5.22;100.00;101325.31;1702467;84;21566;-72
2021/11/15 08:58:05;;;;;;;98.10;47.80;;;;;;;5.25;100.00;101324.27;1678529;84;21650;-74
2021/11/15 09:00:34;;;;;;;101.93;44.87;;;;;;;5.20;100.00;101324.56;1698769;84;21093;-72
2021/11/15 09:03:01;;;;;;;97.87;44.93;;;;;;;5.28;100.00;101326.74;1694119;85;21597;-73
2021/11/15 09:05:29;;;;;;;43.57;22.10;;;;;;;5.43;100.00;101328.34;1726385;83;21098;-73
2021/11/15 09:07:57;;;;;;;44.03;23.07;;;;;;;5.61;100.00;101332.06;1730326;83;21040;-73
2021/11/15 09:14:20;;;;;;;152.45;73.42;;;;;;;5.78;100.00;101335.77;1818817;77;70031;-70
2021/11/15 09:16:47;;;;;;;290.77;98.87;;;;;;;5.89;100.00;101326.95;1828551;78;21441;-72
2021/11/15 09:19:14;;;;;;;464.43;153.37;;;;;;;6.04;100.00;101339.81;1823664;78;21038;-72
2021/11/15 09:21:41;;;;;;;360.13;152.90;;;;;;;6.12;100.00;101336.07;1823832;78;21019;-72
2021/11/15 09:24:08;;;;;;;241.30;98.10;;;;;;;6.13;100.00;101335.11;1818633;78;21056;-72
2021/11/15 09:26:36;;;;;;;306.83;125.67;;;;;;;6.17;100.00;101337.94;1825503;78;21632;-72
2021/11/15 09:29:04;;;;;;;153.63;65.60;;;;;;;6.26;100.00;101335.92;1821241;78;21477;-71
2021/11/15 09:31:31;;;;;;;122.07;56.90;;;;;;;6.41;100.00;101343.38;1823028;78;20982;-71
2021/11/15 09:33:58;;;;;;;129.13;51.10;;;;;;;6.56;100.00;101333.80;1820175;78;21423;-71
2021/11/15 09:36:25;;;;;;;388.03;148.03;;;;;;;6.77;100.00;101325.48;1825423;78;20958;-71
2021/11/15 09:38:54;;;;;;;80.37;38.47;;;;;;;6.74;100.00;101319.48;1820091;78;21450;-71
2021/11/15 09:41:21;;;;;;;52.70;28.97;;;;;;;6.61;100.00;101326.27;1823937;78;21036;-70
2021/11/15 09:43:49;;;;;;;42.50;24.37;;;;;;;6.63;100.00;101327.00;1795445;78;21082;-71
2021/11/15 09:46:20;;;;;;;37.17;20.47;;;;;;;6.75;100.00;101317.17;1825365;78;21007;-71
2021/11/15 09:48:58;;;;;;;37.90;21.43;;;;;;;6.84;100.00;101320.51;1818195;78;21056;-71
2021/11/15 09:51:22;;;;;;;44.03;32.43;;;;;;;6.81;100.00;101314.86;1823028;78;20994;-72
2021/11/15 09:53:49;;;;;;;41.83;28.27;;;;;;;6.86;100.00;101313.18;1812040;78;20994;-70
2021/11/15 09:56:19;;;;;;;39.93;27.27;;;;;;;7.03;100.00;101312.77;1820061;78;20930;-70
2021/11/15 09:58:46;;;;;;;43.00;22.00;;;;;;;7.21;100.00;101302.91;1843431;77;21554;-72
2021/11/15 10:01:13;;;;;;;34.60;18.50;;;;;;;7.43;100.00;101298.55;1827839;78;21440;-74
2021/11/15 10:03:41;;;;;;;58.97;32.30;;;;;;;7.51;100.00;101301.52;1817390;78;21152;-76
2021/11/15 10:06:08;;;;;;;97.57;53.27;;;;;;;7.47;100.00;101298.20;1820383;78;20967;-72
2021/11/15 10:08:52;;;;;;;105.97;58.60;;;;;;;7.34;100.00;101298.78;1823933;78;21538;-72
2021/11/15 10:11:21;;;;;;;45.10;28.17;;;;;;;7.41;100.00;101298.67;1710488;83;21014;-73
2021/11/15 10:13:50;;;;;;;130.00;69.57;;;;;;;7.58;100.00;101299.55;1722565;82;21571;-72
2021/11/15 10:16:22;;;;;;;50.87;33.20;;;;;;;7.63;100.00;101292.44;1709641;83;21040;-71
2021/11/15 10:19:08;;;;;;;44.37;25.27;;;;;;;7.55;100.00;101296.25;1708372;83;21117;-70
2021/11/15 10:21:58;;;;;;;74.67;40.73;;;;;;;7.59;100.00;101307.98;1711637;83;21026;-71
2021/11/15 10:24:32;;;;;;;57.00;30.87;;;;;;;7.55;100.00;101305.66;1687103;84;21350;-73
2021/11/15 10:27:05;;;;;;;32.97;22.90;;;;;;;7.47;100.00;101317.05;1700283;84;21158;-70
2021/11/15 10:29:40;;;;;;;34.05;19.07;;;;;;;7.49;100.00;101319.59;1695183;84;21029;-71
2021/11/15 10:32:18;;;;;;;37.33;21.80;;;;;;;7.60;100.00;101315.09;1689795;84;21056;-70
2021/11/15 10:34:53;;;;;;;49.80;25.77;;;;;;;7.82;100.00;101317.42;1704387;84;21582;-71
2021/11/15 10:37:27;;;;;;;87.97;43.57;;;;;;;8.02;100.00;101320.36;1705284;84;21056;-71
2021/11/15 10:40:06;;;;;;;40.00;24.97;;;;;;;8.11;100.00;101323.66;1701445;84;21503;-75
2021/11/15 10:42:36;;;;;;;32.37;20.87;;;;;;;8.05;100.00;101325.51;1689448;84;21024;-70
2021/11/15 10:45:13;;;;;;;25.07;16.30;;;;;;;7.98;100.00;101324.67;1695093;84;21541;-70
2021/11/15 10:47:54;;;;;;;34.33;26.77;;;;;;;8.02;100.00;101332.02;1688552;84;21493;-71
2021/11/15 10:50:45;;;;;;;47.57;27.23;;;;;;;8.02;100.00;101331.13;1663800;86;21543;-69
2021/11/15 10:53:22;;;;;;;40.03;20.17;;;;;;;8.07;100.00;101328.43;1646869;85;21038;-68
2021/11/15 10:58:43;;;;;;;29.93;19.17;;;;;;;7.98;100.00;101329.17;1552082;92;21081;-69
2021/11/15 11:01:11;;;;;;;35.87;25.80;;;;;;;8.00;100.00;101332.59;1534199;93;21063;-70
2021/11/15 11:03:38;;;;;;;38.60;24.57;;;;;;;8.00;100.00;101333.95;1534276;92;21081;-70
2021/11/15 11:06:09;;;;;;;31.00;17.73;;;;;;;7.95;100.00;101332.98;1535449;93;21087;-70
2021/11/15 11:08:45;;;;;;;28.23;18.50;;;;;;;7.96;100.00;101334.69;1567008;91;21117;-71
2021/11/15 11:11:30;;;;;;;33.47;21.97;;;;;;;8.03;100.00;101336.90;1580212;91;21128;-71
2021/11/15 11:14:02;;;;;;;26.77;16.40;;;;;;;8.11;100.00;101336.66;1572149;90;22755;-70
2021/11/15 11:16:50;;;;;;;39.73;27.27;;;;;;;8.24;100.00;101335.66;1514556;95;21181;-71
2021/11/15 11:27:09;;;;;;;32.60;20.17;;;;;;;8.36;100.00;101340.91;1475453;97;21073;-72